Terminal Aerodrome Forecast
Issued by NWS

Home | Current Version | Previous Version | Graphics & Text | Print | Product List | Glossary On
Versions: 1 2 3 4 5 6 7 8 9 10 11 12 13 14 15
000
FTUS43 KOAX 271141
TAFCDR
TAF
KCDR 271141Z 2712/2812 20008KT P6SM FEW150
     FM271800 18013G21KT P6SM SCT150
     FM272100 20013G20KT P6SM VCTS BKN150CB
     FM280300 32018G27KT P6SM SCT150=

USA.gov is the U.S. government's official web portal to all federal, state and local government web resources and services.